createdAt,value
2016-09-13T00:00:29.333Z,1009.73
2016-09-13T00:01:09.881Z,1009.75
2016-09-13T00:01:50.417Z,1009.73
2016-09-13T00:02:30.944Z,1009.72
2016-09-13T00:03:11.478Z,1009.72
2016-09-13T00:03:52.020Z,1009.72
2016-09-13T00:04:32.545Z,1009.7
2016-09-13T00:05:13.090Z,1009.69
2016-09-13T00:05:53.600Z,1009.68
2016-09-13T00:06:34.164Z,1009.7
2016-09-13T00:07:14.683Z,1009.71
2016-09-13T00:07:55.224Z,1009.7
2016-09-13T00:08:35.764Z,1009.71
2016-09-13T00:09:16.304Z,1009.69
2016-09-13T00:09:56.836Z,1009.7
2016-09-13T00:10:37.385Z,1009.67
2016-09-13T00:11:17.923Z,1009.68
2016-09-13T00:11:58.459Z,1009.67
2016-09-13T00:12:39.004Z,1009.67
2016-09-13T00:13:19.557Z,1009.67
2016-09-13T00:14:00.088Z,1009.63
2016-09-13T00:14:40.644Z,1009.68
2016-09-13T00:15:21.164Z,1009.66
2016-09-13T00:16:01.695Z,1009.65
2016-09-13T00:16:42.220Z,1009.65
2016-09-13T00:17:22.760Z,1009.66
2016-09-13T00:18:03.292Z,1009.67
2016-09-13T00:18:43.839Z,1009.68
2016-09-13T00:19:24.369Z,1009.66
2016-09-13T00:20:04.898Z,1009.64
2016-09-13T00:20:45.443Z,1009.64
2016-09-13T00:21:25.979Z,1009.63
2016-09-13T00:22:06.509Z,1009.64
2016-09-13T00:22:47.051Z,1009.66
2016-09-13T00:23:27.599Z,1009.68
2016-09-13T00:24:08.123Z,1009.68
2016-09-13T00:24:48.673Z,1009.7
2016-09-13T00:25:29.205Z,1009.69
2016-09-13T00:26:09.705Z,1009.67
2016-09-13T00:26:50.241Z,1009.72
2016-09-13T00:27:30.787Z,1009.72
2016-09-13T00:28:11.330Z,1009.71
2016-09-13T00:28:51.853Z,1009.73
2016-09-13T00:29:32.378Z,1009.71
2016-09-13T00:30:12.923Z,1009.73
2016-09-13T00:30:53.449Z,1009.72
2016-09-13T00:31:34.004Z,1009.7
2016-09-13T00:32:14.561Z,1009.69
2016-09-13T00:32:55.089Z,1009.65
2016-09-13T00:33:35.628Z,1009.68
2016-09-13T00:34:16.169Z,1009.66
2016-09-13T00:34:56.688Z,1009.66
2016-09-13T00:35:37.214Z,1009.64
2016-09-13T00:36:17.765Z,1009.63
2016-09-13T00:36:58.296Z,1009.62
2016-09-13T00:37:38.845Z,1009.65
2016-09-13T00:38:19.362Z,1009.64
2016-09-13T00:38:59.895Z,1009.63
2016-09-13T00:39:40.431Z,1009.66
2016-09-13T00:40:20.943Z,1009.64
2016-09-13T00:41:01.489Z,1009.66
2016-09-13T00:41:42.020Z,1009.69
2016-09-13T00:42:22.563Z,1009.69
2016-09-13T00:43:03.097Z,1009.68
2016-09-13T00:43:43.639Z,1009.67
2016-09-13T00:44:24.176Z,1009.69
2016-09-13T00:45:04.694Z,1009.69
2016-09-13T00:45:45.251Z,1009.69
2016-09-13T00:46:25.780Z,1009.69
2016-09-13T00:47:06.345Z,1009.69
2016-09-13T00:47:46.873Z,1009.68
2016-09-13T00:48:27.402Z,1009.71
2016-09-13T00:49:07.934Z,1009.68
2016-09-13T00:49:48.472Z,1009.66
2016-09-13T00:50:29.018Z,1009.66
2016-09-13T00:51:09.564Z,1009.65
2016-09-13T00:51:50.113Z,1009.68
2016-09-13T00:52:30.647Z,1009.66
2016-09-13T00:53:11.184Z,1009.67
2016-09-13T00:53:51.709Z,1009.66
2016-09-13T00:54:32.248Z,1009.62
2016-09-13T00:55:12.790Z,1009.67
2016-09-13T00:55:53.325Z,1009.6
2016-09-13T00:56:33.869Z,1009.57
2016-09-13T00:57:14.404Z,1009.59
2016-09-13T00:57:54.949Z,1009.57
2016-09-13T00:58:35.464Z,1009.59
2016-09-13T00:59:15.995Z,1009.55
2016-09-13T00:59:56.519Z,1009.58
2016-09-13T01:00:37.040Z,1009.57
2016-09-13T01:01:17.576Z,1009.59
2016-09-13T01:01:58.113Z,1009.58
2016-09-13T01:02:38.641Z,1009.54
2016-09-13T01:03:19.180Z,1009.59
2016-09-13T01:03:59.711Z,1009.56
2016-09-13T01:04:40.256Z,1009.56
2016-09-13T01:05:20.748Z,1009.52
2016-09-13T01:06:01.293Z,1009.54
2016-09-13T01:06:41.834Z,1009.54
2016-09-13T01:07:22.350Z,1009.54
2016-09-13T01:08:02.904Z,1009.51
2016-09-13T01:08:43.423Z,1009.53
2016-09-13T01:09:23.950Z,1009.54
2016-09-13T01:10:04.476Z,1009.53
2016-09-13T01:10:45.016Z,1009.51
2016-09-13T01:11:25.548Z,1009.54
2016-09-13T01:12:06.087Z,1009.56
2016-09-13T01:12:46.622Z,1009.54
2016-09-13T01:13:27.147Z,1009.53
2016-09-13T01:14:07.700Z,1009.56
2016-09-13T01:14:48.235Z,1009.52
2016-09-13T01:15:28.776Z,1009.56
2016-09-13T01:16:09.331Z,1009.58
2016-09-13T01:16:49.845Z,1009.6
2016-09-13T01:17:30.365Z,1009.58
2016-09-13T01:18:10.893Z,1009.57
2016-09-13T01:18:51.434Z,1009.55
2016-09-13T01:19:31.962Z,1009.51
2016-09-13T01:20:12.495Z,1009.56
2016-09-13T01:20:53.055Z,1009.54
2016-09-13T01:21:33.557Z,1009.56
2016-09-13T01:22:14.093Z,1009.54
2016-09-13T01:22:54.613Z,1009.56
2016-09-13T01:23:35.147Z,1009.53
2016-09-13T01:24:15.685Z,1009.49
2016-09-13T01:24:56.221Z,1009.49
2016-09-13T01:25:36.760Z,1009.46
2016-09-13T01:26:17.291Z,1009.48
2016-09-13T01:26:57.818Z,1009.48
2016-09-13T01:27:38.328Z,1009.48
2016-09-13T01:28:18.866Z,1009.47
2016-09-13T01:28:59.407Z,1009.44
2016-09-13T01:29:39.943Z,1009.47
2016-09-13T01:30:20.487Z,1009.47
2016-09-13T01:31:01.018Z,1009.48
2016-09-13T01:31:41.531Z,1009.47
2016-09-13T01:32:22.053Z,1009.46
2016-09-13T01:33:09.371Z,1009.45
2016-09-13T01:33:49.918Z,1009.47
2016-09-13T01:34:30.450Z,1009.39
2016-09-13T01:35:10.989Z,1009.44
2016-09-13T01:35:51.511Z,1009.42
2016-09-13T01:36:32.056Z,1009.4
2016-09-13T01:37:12.578Z,1009.4
2016-09-13T01:37:53.137Z,1009.41
2016-09-13T01:38:33.663Z,1009.38
2016-09-13T01:39:14.199Z,1009.4
2016-09-13T01:39:54.735Z,1009.4
2016-09-13T01:40:35.279Z,1009.38
2016-09-13T01:41:15.816Z,1009.34
2016-09-13T01:41:56.354Z,1009.35
2016-09-13T01:42:36.885Z,1009.37
2016-09-13T01:43:17.391Z,1009.37
2016-09-13T01:43:57.932Z,1009.37
2016-09-13T01:44:38.486Z,1009.43
2016-09-13T01:45:19.027Z,1009.38
2016-09-13T01:45:59.544Z,1009.38
2016-09-13T01:46:40.079Z,1009.4
2016-09-13T01:47:20.618Z,1009.38
2016-09-13T01:48:01.162Z,1009.4
2016-09-13T01:48:41.696Z,1009.4
2016-09-13T01:49:22.224Z,1009.41
2016-09-13T01:50:02.740Z,1009.39
2016-09-13T01:50:43.278Z,1009.41
2016-09-13T01:51:23.836Z,1009.37
2016-09-13T01:52:04.342Z,1009.36
2016-09-13T01:52:44.884Z,1009.37
2016-09-13T01:53:25.426Z,1009.34
2016-09-13T01:54:05.962Z,1009.31
2016-09-13T01:54:46.488Z,1009.36
2016-09-13T01:55:27.017Z,1009.36
2016-09-13T01:56:07.568Z,1009.35
2016-09-13T01:56:48.078Z,1009.34
2016-09-13T01:57:28.590Z,1009.34
2016-09-13T01:58:09.128Z,1009.35
2016-09-13T01:58:49.685Z,1009.35
2016-09-13T01:59:30.226Z,1009.36
2016-09-13T02:00:10.761Z,1009.32
2016-09-13T02:00:51.309Z,1009.32
2016-09-13T02:01:31.848Z,1009.33
2016-09-13T02:02:12.385Z,1009.3
2016-09-13T02:02:52.924Z,1009.33
2016-09-13T02:03:33.465Z,1009.31
2016-09-13T02:04:14.031Z,1009.29
2016-09-13T02:04:54.545Z,1009.31
2016-09-13T02:05:35.075Z,1009.29
2016-09-13T02:06:15.610Z,1009.27
2016-09-13T02:06:56.146Z,1009.26
2016-09-13T02:07:36.683Z,1009.3
2016-09-13T02:08:17.224Z,1009.26
2016-09-13T02:08:57.749Z,1009.26
2016-09-13T02:09:38.281Z,1009.27
2016-09-13T02:10:18.832Z,1009.26
2016-09-13T02:10:59.368Z,1009.22
2016-09-13T02:11:39.910Z,1009.26
2016-09-13T02:12:20.445Z,1009.24
2016-09-13T02:13:00.985Z,1009.23
2016-09-13T02:13:41.512Z,1009.22
2016-09-13T02:14:22.035Z,1009.26
2016-09-13T02:15:02.564Z,1009.25
2016-09-13T02:15:43.107Z,1009.28
2016-09-13T02:16:23.658Z,1009.27
2016-09-13T02:17:04.178Z,1009.25
2016-09-13T02:17:44.710Z,1009.25
2016-09-13T02:18:25.257Z,1009.24
2016-09-13T02:19:05.783Z,1009.24
2016-09-13T02:19:46.337Z,1009.26
2016-09-13T02:20:26.880Z,1009.23
2016-09-13T02:21:07.407Z,1009.23
2016-09-13T02:21:47.937Z,1009.27
2016-09-13T02:22:28.483Z,1009.22
2016-09-13T02:23:09.003Z,1009.23
2016-09-13T02:23:49.536Z,1009.27
2016-09-13T02:24:30.075Z,1009.25
2016-09-13T02:25:10.619Z,1009.22
2016-09-13T02:25:51.154Z,1009.21
2016-09-13T02:26:31.682Z,1009.22
2016-09-13T02:27:12.225Z,1009.24
2016-09-13T02:27:52.769Z,1009.21
2016-09-13T02:28:33.296Z,1009.21
2016-09-13T02:29:13.834Z,1009.23
2016-09-13T02:29:54.368Z,1009.2
2016-09-13T02:30:34.911Z,1009.22
2016-09-13T02:31:15.452Z,1009.2
2016-09-13T02:31:55.993Z,1009.19
2016-09-13T02:32:36.506Z,1009.21
2016-09-13T02:33:17.053Z,1009.18
2016-09-13T02:33:57.604Z,1009.18
2016-09-13T02:34:38.140Z,1009.18
2016-09-13T02:35:18.681Z,1009.2
2016-09-13T02:35:59.221Z,1009.19
2016-09-13T02:36:39.772Z,1009.2
2016-09-13T02:37:20.318Z,1009.23
2016-09-13T02:38:00.848Z,1009.25
2016-09-13T02:38:41.373Z,1009.25
2016-09-13T02:39:21.908Z,1009.24
2016-09-13T02:40:02.455Z,1009.25
2016-09-13T02:40:42.998Z,1009.25
2016-09-13T02:41:23.555Z,1009.23
2016-09-13T02:42:04.084Z,1009.23
2016-09-13T02:42:44.629Z,1009.25
2016-09-13T02:43:25.178Z,1009.22
2016-09-13T02:44:05.685Z,1009.23
2016-09-13T02:44:46.201Z,1009.19
2016-09-13T02:45:26.747Z,1009.23
2016-09-13T02:46:07.289Z,1009.19
2016-09-13T02:46:47.799Z,1009.2
2016-09-13T02:47:28.328Z,1009.23
2016-09-13T02:48:08.855Z,1009.17
2016-09-13T02:48:49.379Z,1009.2
2016-09-13T02:49:29.879Z,1009.15
2016-09-13T02:50:10.407Z,1009.16
2016-09-13T02:50:50.909Z,1009.14
2016-09-13T02:51:31.458Z,1009.14
2016-09-13T02:52:11.997Z,1009.16
2016-09-13T02:52:52.508Z,1009.13
2016-09-13T02:53:33.040Z,1009.12
2016-09-13T02:54:13.581Z,1009.11
2016-09-13T02:54:54.105Z,1009.1
2016-09-13T02:55:34.618Z,1009.11
2016-09-13T02:56:15.159Z,1009.14
2016-09-13T02:56:55.701Z,1009.11
2016-09-13T02:57:36.253Z,1009.11
2016-09-13T02:58:16.804Z,1009.11
2016-09-13T02:58:57.325Z,1009.13
2016-09-13T02:59:37.838Z,1009.17
2016-09-13T03:00:18.384Z,1009.16
2016-09-13T03:00:58.964Z,1009.14
2016-09-13T03:01:39.503Z,1009.15
2016-09-13T03:02:20.040Z,1009.15
2016-09-13T03:03:00.587Z,1009.14
2016-09-13T03:03:41.137Z,1009.12
2016-09-13T03:04:21.675Z,1009.16
2016-09-13T03:05:02.210Z,1009.16
2016-09-13T03:05:42.752Z,1009.15
2016-09-13T03:06:23.298Z,1009.14
2016-09-13T03:07:03.871Z,1009.13
2016-09-13T03:07:44.418Z,1009.15
2016-09-13T03:08:24.962Z,1009.12
2016-09-13T03:09:05.504Z,1009.1
2016-09-13T03:09:46.050Z,1009.12
2016-09-13T03:10:26.565Z,1009.15
2016-09-13T03:11:07.101Z,1009.13
2016-09-13T03:11:47.634Z,1009.15
2016-09-13T03:12:28.175Z,1009.12
2016-09-13T03:13:08.713Z,1009.14
2016-09-13T03:13:49.251Z,1009.1
2016-09-13T03:14:29.801Z,1009.09
2016-09-13T03:15:10.340Z,1009.1
2016-09-13T03:15:50.869Z,1009.09
2016-09-13T03:16:31.416Z,1009.1
2016-09-13T03:17:11.966Z,1009.09
2016-09-13T03:17:52.485Z,1009.07
2016-09-13T03:18:33.031Z,1009.08
2016-09-13T03:19:13.589Z,1009.07
2016-09-13T03:19:54.133Z,1009.07
2016-09-13T03:20:34.846Z,1009.09
2016-09-13T03:21:15.407Z,1009.04
2016-09-13T03:21:55.946Z,1009.09
2016-09-13T03:22:36.479Z,1009.06
2016-09-13T03:23:17.049Z,1009.03
2016-09-13T03:23:57.585Z,1009.06
2016-09-13T03:24:38.112Z,1009.02
2016-09-13T03:25:18.675Z,1009.05
2016-09-13T03:25:59.204Z,1009.04
2016-09-13T03:26:39.722Z,1009.08
2016-09-13T03:27:20.255Z,1009.04
2016-09-13T03:28:00.804Z,1009.05
2016-09-13T03:28:41.332Z,1009.04
2016-09-13T03:29:21.874Z,1009.04
2016-09-13T03:30:02.385Z,1009.06
2016-09-13T03:30:42.929Z,1009.05
2016-09-13T03:31:23.465Z,1009.05
2016-09-13T03:32:03.991Z,1009.06
2016-09-13T03:32:44.553Z,1009.06
2016-09-13T03:33:25.084Z,1009.03
2016-09-13T03:34:05.628Z,1009.06
2016-09-13T03:34:46.133Z,1009.04
2016-09-13T03:35:26.707Z,1009.04
2016-09-13T03:36:07.244Z,1009.05
2016-09-13T03:36:47.788Z,1009.07
2016-09-13T03:37:28.317Z,1009.06
2016-09-13T03:38:08.851Z,1009.07
2016-09-13T03:38:49.393Z,1009.06
2016-09-13T03:39:29.909Z,1009.02
2016-09-13T03:40:10.426Z,1009
2016-09-13T03:40:50.944Z,1009
2016-09-13T03:41:31.481Z,1008.98
2016-09-13T03:42:12.040Z,1008.98
2016-09-13T03:42:52.554Z,1008.97
2016-09-13T03:43:33.101Z,1008.99
2016-09-13T03:44:13.663Z,1008.96
2016-09-13T03:46:09.815Z,1009
2016-09-13T03:46:50.318Z,1008.98
2016-09-13T03:47:30.861Z,1009
2016-09-13T03:48:11.394Z,1008.98
2016-09-13T03:48:51.906Z,1008.98
2016-09-13T03:49:32.430Z,1009
2016-09-13T03:50:12.964Z,1008.99
2016-09-13T03:50:53.507Z,1008.99
2016-09-13T03:51:34.047Z,1008.97
2016-09-13T03:52:14.569Z,1009
2016-09-13T03:52:55.096Z,1008.98
2016-09-13T03:53:35.631Z,1009
2016-09-13T03:54:16.166Z,1009
2016-09-13T03:54:56.710Z,1008.98
2016-09-13T03:55:37.264Z,1008.97
2016-09-13T03:56:17.778Z,1009.01
2016-09-13T03:56:58.316Z,1009
2016-09-13T03:57:38.840Z,1009.02
2016-09-13T03:58:19.384Z,1009.03
2016-09-13T03:58:59.940Z,1009.04
2016-09-13T03:59:40.469Z,1009.01
2016-09-13T04:00:20.991Z,1009
2016-09-13T04:01:01.597Z,1009.01
2016-09-13T04:01:42.123Z,1009.05
2016-09-13T04:02:22.660Z,1009.07
2016-09-13T04:03:03.199Z,1009.03
2016-09-13T04:03:43.727Z,1009.03
2016-09-13T04:04:24.239Z,1009.02
2016-09-13T04:05:04.740Z,1009.01
2016-09-13T04:05:45.253Z,1009.02
2016-09-13T04:06:25.798Z,1009.02
2016-09-13T04:07:06.335Z,1009.02
2016-09-13T04:07:47.254Z,1009.02
2016-09-13T04:08:27.830Z,1009.01
2016-09-13T04:09:08.364Z,1008.98
2016-09-13T04:09:48.902Z,1009.02
2016-09-13T04:10:29.437Z,1009
2016-09-13T04:11:09.934Z,1008.99
2016-09-13T04:11:50.459Z,1008.98
2016-09-13T04:12:30.963Z,1008.97
2016-09-13T04:13:11.471Z,1008.99
2016-09-13T04:13:52.007Z,1008.97
2016-09-13T04:14:32.534Z,1008.97
2016-09-13T04:15:13.038Z,1008.98
2016-09-13T04:15:53.561Z,1008.94
2016-09-13T04:16:34.099Z,1008.93
2016-09-13T04:17:14.635Z,1008.98
2016-09-13T04:17:55.179Z,1008.96
2016-09-13T04:18:35.712Z,1008.98
2016-09-13T04:19:16.244Z,1009.01
2016-09-13T04:19:56.787Z,1008.96
2016-09-13T04:20:37.336Z,1008.96
2016-09-13T04:21:17.862Z,1008.97
2016-09-13T04:21:58.403Z,1008.98
2016-09-13T04:22:38.909Z,1008.99
2016-09-13T04:23:19.501Z,1008.98
2016-09-13T04:24:00.072Z,1009.02
2016-09-13T04:24:40.602Z,1009.01
2016-09-13T04:25:21.123Z,1008.99
2016-09-13T04:26:01.687Z,1008.98
2016-09-13T04:26:43.245Z,1008.99
2016-09-13T04:27:24.170Z,1008.98
2016-09-13T04:28:04.684Z,1008.97
2016-09-13T04:28:45.211Z,1008.96
2016-09-13T04:29:25.756Z,1008.98
2016-09-13T04:30:06.291Z,1008.98
2016-09-13T04:30:46.812Z,1008.93
2016-09-13T04:31:27.364Z,1008.97
2016-09-13T04:32:07.873Z,1008.97
2016-09-13T04:32:48.410Z,1008.92
2016-09-13T04:33:28.942Z,1008.98
2016-09-13T04:34:09.453Z,1008.94
2016-09-13T04:34:49.983Z,1008.95
2016-09-13T04:35:30.501Z,1008.94
2016-09-13T04:36:11.028Z,1008.95
2016-09-13T04:36:51.570Z,1008.95
2016-09-13T04:37:32.066Z,1008.94
2016-09-13T04:38:12.600Z,1008.93
2016-09-13T04:38:53.163Z,1008.92
2016-09-13T04:39:34.425Z,1008.95
2016-09-13T04:40:16.273Z,1008.93
2016-09-13T04:40:57.544Z,1008.98
2016-09-13T04:41:38.682Z,1008.96
2016-09-13T04:42:19.057Z,1009
2016-09-13T04:42:59.914Z,1008.99
2016-09-13T04:43:40.443Z,1009
2016-09-13T04:44:21.025Z,1009.03
2016-09-13T04:45:01.523Z,1009.05
2016-09-13T04:45:42.020Z,1009.04
2016-09-13T04:46:22.559Z,1009.05
2016-09-13T04:47:03.086Z,1009.06
2016-09-13T04:47:43.614Z,1009.02
2016-09-13T04:48:24.142Z,1009.03
2016-09-13T04:49:04.695Z,1009.02
2016-09-13T04:49:45.235Z,1009.07
2016-09-13T04:50:25.783Z,1009.08
2016-09-13T04:51:06.331Z,1009.04
2016-09-13T04:51:46.871Z,1009.07
2016-09-13T04:52:27.388Z,1009.03
2016-09-13T04:53:07.918Z,1009.05
2016-09-13T04:53:48.457Z,1009.03
2016-09-13T04:54:28.999Z,1009.02
2016-09-13T04:55:09.620Z,1009
2016-09-13T04:55:50.173Z,1009.03
2016-09-13T04:56:30.698Z,1008.99
2016-09-13T04:57:11.238Z,1009
2016-09-13T04:57:51.772Z,1009.01
2016-09-13T04:58:32.290Z,1009.02
2016-09-13T04:59:12.826Z,1009.02
2016-09-13T04:59:53.347Z,1009.03
2016-09-13T05:00:33.870Z,1009.03
2016-09-13T05:01:14.419Z,1009.05
2016-09-13T05:01:54.945Z,1009.02
2016-09-13T05:02:35.467Z,1009.05
2016-09-13T05:03:15.996Z,1009.05
2016-09-13T05:03:56.511Z,1009.1
2016-09-13T05:04:37.054Z,1009.07
2016-09-13T05:05:17.580Z,1009.08
2016-09-13T05:05:58.097Z,1009.1
2016-09-13T05:06:38.634Z,1009.1
2016-09-13T05:07:19.157Z,1009.09
2016-09-13T05:07:59.685Z,1009.12
2016-09-13T05:08:40.212Z,1009.13
2016-09-13T05:09:20.732Z,1009.09
2016-09-13T05:10:01.272Z,1009.13
2016-09-13T05:10:41.796Z,1009.12
2016-09-13T05:11:22.348Z,1009.16
2016-09-13T05:12:02.892Z,1009.13
2016-09-13T05:12:43.426Z,1009.12
2016-09-13T05:13:23.948Z,1009.13
2016-09-13T05:14:04.476Z,1009.13
2016-09-13T05:14:45.012Z,1009.16
2016-09-13T05:15:25.555Z,1009.17
2016-09-13T05:16:06.082Z,1009.17
2016-09-13T05:16:46.609Z,1009.18
2016-09-13T05:17:27.150Z,1009.18
2016-09-13T05:18:07.681Z,1009.19
2016-09-13T05:18:48.215Z,1009.19
2016-09-13T05:19:28.763Z,1009.19
2016-09-13T05:20:09.276Z,1009.18
2016-09-13T05:20:49.805Z,1009.18
2016-09-13T05:21:30.334Z,1009.15
2016-09-13T05:22:10.862Z,1009.15
2016-09-13T05:22:51.406Z,1009.15
2016-09-13T05:23:31.962Z,1009.17
2016-09-13T05:24:12.487Z,1009.15
2016-09-13T05:24:53.027Z,1009.14
2016-09-13T05:25:33.571Z,1009.16
2016-09-13T05:26:14.114Z,1009.13
2016-09-13T05:26:54.642Z,1009.16
2016-09-13T05:27:35.162Z,1009.11
2016-09-13T05:28:15.715Z,1009.16
2016-09-13T05:28:56.261Z,1009.13
2016-09-13T05:29:36.799Z,1009.16
2016-09-13T05:30:17.340Z,1009.15
2016-09-13T05:30:57.875Z,1009.18
2016-09-13T05:31:38.391Z,1009.17
2016-09-13T05:32:18.956Z,1009.17
2016-09-13T05:32:59.493Z,1009.18
2016-09-13T05:33:40.022Z,1009.19
2016-09-13T05:34:20.575Z,1009.2
2016-09-13T05:35:01.090Z,1009.2
2016-09-13T05:35:41.645Z,1009.2
2016-09-13T05:36:22.193Z,1009.21
2016-09-13T05:37:02.721Z,1009.22
2016-09-13T05:37:43.274Z,1009.21
2016-09-13T05:38:23.812Z,1009.24
2016-09-13T05:39:04.336Z,1009.23
2016-09-13T05:39:44.887Z,1009.2
2016-09-13T05:40:25.435Z,1009.25
2016-09-13T05:41:05.987Z,1009.25
2016-09-13T05:41:46.515Z,1009.28
2016-09-13T05:42:27.056Z,1009.24
2016-09-13T05:43:07.602Z,1009.23
2016-09-13T05:43:48.121Z,1009.26
2016-09-13T05:44:28.673Z,1009.21
2016-09-13T05:45:09.191Z,1009.24
2016-09-13T05:45:49.724Z,1009.26
2016-09-13T05:46:30.256Z,1009.26
2016-09-13T05:47:10.786Z,1009.28
2016-09-13T05:47:51.303Z,1009.27
2016-09-13T05:48:31.837Z,1009.27
2016-09-13T05:49:12.384Z,1009.27
2016-09-13T05:49:52.908Z,1009.29
2016-09-13T05:50:33.439Z,1009.3
2016-09-13T05:51:13.978Z,1009.27
2016-09-13T05:51:54.523Z,1009.27
2016-09-13T05:52:35.079Z,1009.27
2016-09-13T05:53:15.624Z,1009.28
2016-09-13T05:53:56.286Z,1009.28
2016-09-13T05:54:36.791Z,1009.28
2016-09-13T05:55:17.330Z,1009.29
2016-09-13T05:55:57.832Z,1009.27
2016-09-13T05:56:38.358Z,1009.26
2016-09-13T05:57:18.888Z,1009.28
2016-09-13T05:57:59.418Z,1009.27
2016-09-13T05:58:39.958Z,1009.26
2016-09-13T05:59:20.498Z,1009.26
2016-09-13T06:00:01.004Z,1009.3
2016-09-13T06:00:41.537Z,1009.27
2016-09-13T06:01:22.071Z,1009.31
2016-09-13T06:02:02.605Z,1009.31
2016-09-13T06:02:43.130Z,1009.31
2016-09-13T06:03:23.640Z,1009.33
2016-09-13T06:04:04.177Z,1009.34
2016-09-13T06:04:44.717Z,1009.31
2016-09-13T06:05:25.247Z,1009.3
2016-09-13T06:06:05.770Z,1009.33
2016-09-13T06:06:46.346Z,1009.31
2016-09-13T06:07:26.884Z,1009.32
2016-09-13T06:08:07.423Z,1009.33
2016-09-13T06:08:47.949Z,1009.31
2016-09-13T06:09:28.445Z,1009.3
2016-09-13T06:10:08.968Z,1009.34
2016-09-13T06:10:49.506Z,1009.31
2016-09-13T06:11:30.038Z,1009.32
2016-09-13T06:12:10.574Z,1009.35
2016-09-13T06:12:51.122Z,1009.35
2016-09-13T06:13:31.632Z,1009.35
2016-09-13T06:14:12.149Z,1009.36
2016-09-13T06:14:52.698Z,1009.35
2016-09-13T06:15:33.236Z,1009.37
2016-09-13T06:16:13.761Z,1009.38
2016-09-13T06:16:54.289Z,1009.36
2016-09-13T06:17:34.821Z,1009.36
2016-09-13T06:18:15.331Z,1009.36
2016-09-13T06:18:55.872Z,1009.34
2016-09-13T06:19:36.394Z,1009.38
2016-09-13T06:20:16.942Z,1009.34
2016-09-13T06:20:57.485Z,1009.34
2016-09-13T06:21:37.993Z,1009.35
2016-09-13T06:22:18.532Z,1009.41
2016-09-13T06:22:59.078Z,1009.35
2016-09-13T06:23:39.619Z,1009.38
2016-09-13T06:24:20.147Z,1009.41
2016-09-13T06:25:00.675Z,1009.4
2016-09-13T06:25:41.184Z,1009.42
2016-09-13T06:26:21.684Z,1009.44
2016-09-13T06:27:02.216Z,1009.47
2016-09-13T06:27:42.749Z,1009.47
2016-09-13T06:28:23.279Z,1009.45
2016-09-13T06:29:03.814Z,1009.48
2016-09-13T06:29:44.347Z,1009.46
2016-09-13T06:30:24.882Z,1009.46
2016-09-13T06:31:05.411Z,1009.46
2016-09-13T06:31:45.947Z,1009.49
2016-09-13T06:32:26.485Z,1009.51
2016-09-13T06:33:07.035Z,1009.49
2016-09-13T06:33:47.541Z,1009.48
2016-09-13T06:34:28.077Z,1009.51
2016-09-13T06:35:08.621Z,1009.5
2016-09-13T06:35:49.184Z,1009.49
2016-09-13T06:36:29.715Z,1009.48
2016-09-13T06:37:10.280Z,1009.46
2016-09-13T06:37:50.780Z,1009.5
2016-09-13T06:38:31.331Z,1009.46
2016-09-13T06:39:11.855Z,1009.46
2016-09-13T06:39:52.395Z,1009.47
2016-09-13T06:40:32.911Z,1009.49
2016-09-13T06:41:13.469Z,1009.47
2016-09-13T06:41:53.995Z,1009.46
2016-09-13T06:42:34.537Z,1009.47
2016-09-13T06:43:15.084Z,1009.47
2016-09-13T06:43:55.620Z,1009.45
2016-09-13T06:44:36.162Z,1009.51
2016-09-13T06:45:16.714Z,1009.47
2016-09-13T06:45:57.228Z,1009.48
2016-09-13T06:46:37.769Z,1009.48
2016-09-13T06:47:18.303Z,1009.48
2016-09-13T06:47:58.850Z,1009.52
2016-09-13T06:48:39.382Z,1009.5
2016-09-13T06:49:19.916Z,1009.51
2016-09-13T06:50:00.453Z,1009.5
2016-09-13T06:50:40.981Z,1009.5
2016-09-13T06:51:21.511Z,1009.46
2016-09-13T06:52:02.044Z,1009.5
2016-09-13T06:52:42.597Z,1009.51
2016-09-13T06:53:23.141Z,1009.5
2016-09-13T06:54:03.675Z,1009.51
2016-09-13T06:54:44.222Z,1009.51
2016-09-13T06:55:24.746Z,1009.51
2016-09-13T06:56:05.293Z,1009.5
2016-09-13T06:56:45.838Z,1009.52
2016-09-13T06:57:26.376Z,1009.56
2016-09-13T06:58:06.919Z,1009.52
2016-09-13T06:58:47.455Z,1009.58
2016-09-13T06:59:27.994Z,1009.56
2016-09-13T07:00:08.517Z,1009.54
2016-09-13T07:00:49.071Z,1009.56
2016-09-13T07:01:29.608Z,1009.55
2016-09-13T07:02:10.150Z,1009.57
2016-09-13T07:02:50.652Z,1009.57
2016-09-13T07:03:31.206Z,1009.57
2016-09-13T07:04:11.756Z,1009.56
2016-09-13T07:04:52.285Z,1009.59
2016-09-13T07:05:32.821Z,1009.62
2016-09-13T07:06:13.375Z,1009.63
2016-09-13T07:06:53.876Z,1009.61
2016-09-13T07:07:34.384Z,1009.63
2016-09-13T07:08:14.924Z,1009.65
2016-09-13T07:08:55.413Z,1009.63
2016-09-13T07:09:35.964Z,1009.66
2016-09-13T07:10:16.487Z,1009.64
2016-09-13T07:10:57.018Z,1009.65
2016-09-13T07:11:37.533Z,1009.63
2016-09-13T07:12:18.043Z,1009.67
2016-09-13T07:12:58.575Z,1009.67
2016-09-13T07:13:39.124Z,1009.67
2016-09-13T07:14:19.632Z,1009.69
2016-09-13T07:15:00.140Z,1009.68
2016-09-13T07:15:40.660Z,1009.63
2016-09-13T07:16:21.191Z,1009.64
2016-09-13T07:17:01.709Z,1009.64
2016-09-13T07:17:42.248Z,1009.66
2016-09-13T07:18:22.787Z,1009.64
2016-09-13T07:19:03.361Z,1009.63
2016-09-13T07:19:43.877Z,1009.61
2016-09-13T07:20:24.438Z,1009.63
2016-09-13T07:21:04.996Z,1009.61
2016-09-13T07:21:45.520Z,1009.6
2016-09-13T07:22:26.019Z,1009.65
2016-09-13T07:23:06.589Z,1009.63
2016-09-13T07:23:47.143Z,1009.64
2016-09-13T07:24:27.704Z,1009.61
2016-09-13T07:25:08.256Z,1009.66
2016-09-13T07:25:48.786Z,1009.63
2016-09-13T07:26:29.324Z,1009.63
2016-09-13T07:27:09.907Z,1009.64
2016-09-13T07:27:50.406Z,1009.64
2016-09-13T07:28:31.000Z,1009.64
2016-09-13T07:29:11.520Z,1009.67
2016-09-13T07:29:52.071Z,1009.64
2016-09-13T07:30:32.659Z,1009.65
2016-09-13T07:31:13.267Z,1009.65
2016-09-13T07:31:53.816Z,1009.64
2016-09-13T07:32:34.367Z,1009.65
2016-09-13T07:33:14.889Z,1009.58
2016-09-13T07:33:55.384Z,1009.6
2016-09-13T07:34:35.898Z,1009.6
2016-09-13T07:35:16.422Z,1009.62
2016-09-13T07:35:56.951Z,1009.64
2016-09-13T07:36:37.502Z,1009.62
2016-09-13T07:37:18.004Z,1009.6
2016-09-13T07:37:58.531Z,1009.6
2016-09-13T07:38:39.102Z,1009.6
2016-09-13T07:39:19.608Z,1009.62
2016-09-13T07:40:00.138Z,1009.61
2016-09-13T07:40:40.689Z,1009.6
2016-09-13T07:41:21.247Z,1009.59
2016-09-13T07:42:01.767Z,1009.62
2016-09-13T07:42:42.322Z,1009.62
2016-09-13T07:43:22.857Z,1009.61
2016-09-13T07:44:04.233Z,1009.66
2016-09-13T07:44:44.741Z,1009.63
2016-09-13T07:45:25.291Z,1009.67
2016-09-13T07:46:05.839Z,1009.64
2016-09-13T07:46:46.324Z,1009.68
2016-09-13T07:47:26.873Z,1009.68
2016-09-13T07:48:07.441Z,1009.69
2016-09-13T07:48:47.943Z,1009.64
2016-09-13T07:49:28.501Z,1009.65
2016-09-13T07:50:09.005Z,1009.63
2016-09-13T07:50:49.547Z,1009.65
2016-09-13T07:51:30.085Z,1009.64
2016-09-13T07:52:10.623Z,1009.63
2016-09-13T07:52:51.173Z,1009.64
2016-09-13T07:53:31.686Z,1009.63
2016-09-13T07:54:12.231Z,1009.62
2016-09-13T07:54:52.835Z,1009.62
2016-09-13T07:55:33.332Z,1009.62
2016-09-13T07:56:13.883Z,1009.59
2016-09-13T07:56:54.458Z,1009.56
2016-09-13T07:57:35.040Z,1009.57
2016-09-13T07:58:15.558Z,1009.58
2016-09-13T07:58:56.131Z,1009.54
2016-09-13T07:59:36.731Z,1009.56
2016-09-13T08:00:17.192Z,1009.57
2016-09-13T08:00:57.714Z,1009.6
2016-09-13T08:01:38.236Z,1009.58
2016-09-13T08:02:18.834Z,1009.58
2016-09-13T08:02:59.847Z,1009.56
2016-09-13T08:03:40.869Z,1009.58
2016-09-13T08:04:21.694Z,1009.62
2016-09-13T08:05:02.708Z,1009.59
2016-09-13T08:05:43.687Z,1009.56
2016-09-13T08:06:24.410Z,1009.57
2016-09-13T08:07:05.232Z,1009.59
2016-09-13T08:07:46.186Z,1009.55
2016-09-13T08:08:27.103Z,1009.6
2016-09-13T08:09:08.248Z,1009.57
2016-09-13T08:09:49.073Z,1009.56
2016-09-13T08:10:29.957Z,1009.55
2016-09-13T08:11:10.748Z,1009.54
2016-09-13T08:11:51.487Z,1009.51
2016-09-13T08:12:31.984Z,1009.53
2016-09-13T08:13:12.518Z,1009.52
2016-09-13T08:13:53.031Z,1009.5